News.

Patrouille Sparflex - figure aérienne - Fly and Fun
Réserver un vol ?

Vous avez envie de vivre un moment unique ? Réserver un vol à sensation ou un vol d’initiation pour profiter d’un moment inoubliable a bord d’un L39 Albatros !

Patrouille Sparflex - figure aérienne - Fly and Fun
Nouveau site internet !

Bienvenue sur notre nouveau site internet !
Vous pouvez désormais commander votre vol à sensation ou d’initiation directement en ligne !

Social Wall.

Suivez-nous sur les réseaux sociaux comme Facebook et Instagram pour découvrir des actualités inédites !

Facebook.
Comments Box SVG iconsUsed for the like, share, comment, and reaction icons
METAR :

LFQA 021300Z AUTO 29006KT 250V330 9999 BKN041/// BKN060/// BKN074/// ///CB 22/14 Q1015


vue en direct sur l'aérodrome
mentions légales politique de confidentialité
Cochet Concept
cx